Aviation Digital Data Service (ADDS)

Output produced by METARs form (2142 UTC 16 February 2019)
found at http://www.aviationweather.gov/metar/data/
 
METAR text: RPLB 162100Z 05004KT 9999 FEW020 22/19 Q1014 NOSIG RMK A2994
Conditions at: RPLB (OLONGAPO/SUBIC , PH) observed 2100 UTC 16 February 2019
Temperature: 22.0°C (72°F)
Dewpoint: 19.0°C (66°F) [RH = 83%]
Pressure (altimeter): 29.94 inches Hg (1014.0 mb)
Winds: from the NE (50 degrees) at 5 MPH (4 knots; 2.1 m/s)
Visibility: 6 or more miles (10+ km)
Ceiling: at least 12,000 feet AGL
Clouds: few clouds at 2000 feet AGL
Weather: no significant weather observed at this time

METAR text: RPLB 162000Z 08008KT 9999 FEW020 22/19 Q1014 NOSIG RMK A2994
Conditions at: RPLB (OLONGAPO/SUBIC , PH) observed 2000 UTC 16 February 2019
Temperature: 22.0°C (72°F)
Dewpoint: 19.0°C (66°F) [RH = 83%]
Pressure (altimeter): 29.94 inches Hg (1014.0 mb)
Winds: from the E (80 degrees) at 9 MPH (8 knots; 4.1 m/s)
Visibility: 6 or more miles (10+ km)
Ceiling: at least 12,000 feet AGL
Clouds: few clouds at 2000 feet AGL
Weather: no significant weather observed at this time

METAR text: RPLB 161900Z 07008KT 9999 FEW020 22/19 Q1014 NOSIG RMK A2994
Conditions at: RPLB (OLONGAPO/SUBIC , PH) observed 1900 UTC 16 February 2019
Temperature: 22.0°C (72°F)
Dewpoint: 19.0°C (66°F) [RH = 83%]
Pressure (altimeter): 29.94 inches Hg (1014.0 mb)
Winds: from the ENE (70 degrees) at 9 MPH (8 knots; 4.1 m/s)
Visibility: 6 or more miles (10+ km)
Ceiling: at least 12,000 feet AGL
Clouds: few clouds at 2000 feet AGL
Weather: no significant weather observed at this time

METAR text: RPLB 161800Z 06004KT 030V090 9999 FEW020 23/18 Q1015 NOSIG RMK A2997
Conditions at: RPLB (OLONGAPO/SUBIC , PH) observed 1800 UTC 16 February 2019
Temperature: 23.0°C (73°F)
Dewpoint: 18.0°C (64°F) [RH = 73%]
Pressure (altimeter): 29.97 inches Hg (1015.0 mb)
Winds: from the ENE (60 degrees) at 5 MPH (4 knots; 2.1 m/s)
Visibility: 6 or more miles (10+ km)
Ceiling: at least 12,000 feet AGL
Clouds: few clouds at 2000 feet AGL
Weather: no significant weather observed at this time

METAR text: RPLB 161700Z VRB03KT 9999 FEW020 23/19 Q1015 NOSIG RMK A2997
Conditions at: RPLB (OLONGAPO/SUBIC , PH) observed 1700 UTC 16 February 2019
Temperature: 23.0°C (73°F)
Dewpoint: 19.0°C (66°F) [RH = 78%]
Pressure (altimeter): 29.97 inches Hg (1015.0 mb)
Winds: variable direction winds at 3 MPH (3 knots; 1.5 m/s)
Visibility: 6 or more miles (10+ km)
Ceiling: at least 12,000 feet AGL
Clouds: few clouds at 2000 feet AGL
Weather: no significant weather observed at this time

METAR text: RPLB 161600Z 04005KT 010V070 9999 FEW020 24/19 Q1016 NOSIG RMK A3000
Conditions at: RPLB (OLONGAPO/SUBIC , PH) observed 1600 UTC 16 February 2019
Temperature: 24.0°C (75°F)
Dewpoint: 19.0°C (66°F) [RH = 74%]
Pressure (altimeter): 30.00 inches Hg (1016.0 mb)
Winds: from the NE (40 degrees) at 6 MPH (5 knots; 2.6 m/s)
Visibility: 6 or more miles (10+ km)
Ceiling: at least 12,000 feet AGL
Clouds: few clouds at 2000 feet AGL
Weather: no significant weather observed at this time

METAR text: RPLB 161500Z 07005KT 9999 FEW020 24/21 Q1016 NOSIG RMK A3000
Conditions at: RPLB (OLONGAPO/SUBIC , PH) observed 1500 UTC 16 February 2019
Temperature: 24.0°C (75°F)
Dewpoint: 21.0°C (70°F) [RH = 83%]
Pressure (altimeter): 30.00 inches Hg (1016.0 mb)
Winds: from the ENE (70 degrees) at 6 MPH (5 knots; 2.6 m/s)
Visibility: 6 or more miles (10+ km)
Ceiling: at least 12,000 feet AGL
Clouds: few clouds at 2000 feet AGL
Weather: no significant weather observed at this time

METAR text: RPLB 161400Z 05006KT 9999 FEW020 24/22 Q1016 NOSIG RMK A3000
Conditions at: RPLB (OLONGAPO/SUBIC , PH) observed 1400 UTC 16 February 2019
Temperature: 24.0°C (75°F)
Dewpoint: 22.0°C (72°F) [RH = 89%]
Pressure (altimeter): 30.00 inches Hg (1016.0 mb)
Winds: from the NE (50 degrees) at 7 MPH (6 knots; 3.1 m/s)
Visibility: 6 or more miles (10+ km)
Ceiling: at least 12,000 feet AGL
Clouds: few clouds at 2000 feet AGL
Weather: no significant weather observed at this time

METAR text: RPLB 161300Z VRB03KT 9999 SCT020 26/22 Q1016 NOSIG RMK A3000
Conditions at: RPLB (OLONGAPO/SUBIC , PH) observed 1300 UTC 16 February 2019
Temperature: 26.0°C (79°F)
Dewpoint: 22.0°C (72°F) [RH = 79%]
Pressure (altimeter): 30.00 inches Hg (1016.0 mb)
Winds: variable direction winds at 3 MPH (3 knots; 1.5 m/s)
Visibility: 6 or more miles (10+ km)
Ceiling: at least 12,000 feet AGL
Clouds: scattered clouds at 2000 feet AGL
Weather: no significant weather observed at this time

METAR text: RPLB 161200Z 36004KT 320V030 9999 FEW020 26/22 Q1015 NOSIG RMK A2997
Conditions at: RPLB (OLONGAPO/SUBIC , PH) observed 1200 UTC 16 February 2019
Temperature: 26.0°C (79°F)
Dewpoint: 22.0°C (72°F) [RH = 79%]
Pressure (altimeter): 29.97 inches Hg (1015.0 mb)
Winds: from the N (360 degrees) at 5 MPH (4 knots; 2.1 m/s)
Visibility: 6 or more miles (10+ km)
Ceiling: at least 12,000 feet AGL
Clouds: few clouds at 2000 feet AGL
Weather: no significant weather observed at this time

METAR text: RPLB 161100Z 36007KT 330V040 9999 FEW020 26/22 Q1015 NOSIG RMK A2997
Conditions at: RPLB (OLONGAPO/SUBIC , PH) observed 1100 UTC 16 February 2019
Temperature: 26.0°C (79°F)
Dewpoint: 22.0°C (72°F) [RH = 79%]
Pressure (altimeter): 29.97 inches Hg (1015.0 mb)
Winds: from the N (360 degrees) at 8 MPH (7 knots; 3.6 m/s)
Visibility: 6 or more miles (10+ km)
Ceiling: at least 12,000 feet AGL
Clouds: few clouds at 2000 feet AGL
Weather: no significant weather observed at this time

METAR text: RPLB 161000Z 35008KT 310V020 9999 FEW020 SCT080 27/22 Q1014 NOSIG RMK A2994
Conditions at: RPLB (OLONGAPO/SUBIC , PH) observed 1000 UTC 16 February 2019
Temperature: 27.0°C (81°F)
Dewpoint: 22.0°C (72°F) [RH = 74%]
Pressure (altimeter): 29.94 inches Hg (1014.0 mb)
Winds: from the N (350 degrees) at 9 MPH (8 knots; 4.1 m/s)
Visibility: 6 or more miles (10+ km)
Ceiling: at least 12,000 feet AGL
Clouds: few clouds at 2000 feet AGL
scattered clouds at 8000 feet AGL
Weather: no significant weather observed at this time

METAR text: RPLB 160900Z 34008KT 310V020 9999 FEW020 BKN080 28/22 Q1014 NOSIG RMK A2994
Conditions at: RPLB (OLONGAPO/SUBIC , PH) observed 0900 UTC 16 February 2019
Temperature: 28.0°C (82°F)
Dewpoint: 22.0°C (72°F) [RH = 70%]
Pressure (altimeter): 29.94 inches Hg (1014.0 mb)
Winds: from the NNW (340 degrees) at 9 MPH (8 knots; 4.1 m/s)
Visibility: 6 or more miles (10+ km)
Ceiling: 8000 feet AGL
Clouds: few clouds at 2000 feet AGL
broken clouds at 8000 feet AGL
Weather: no significant weather observed at this time

METAR text: RPLB 160800Z 32007KT 290V350 9999 SCT020 30/22 Q1013 NOSIG RMK A2991
Conditions at: RPLB (OLONGAPO/SUBIC , PH) observed 0800 UTC 16 February 2019
Temperature: 30.0°C (86°F)
Dewpoint: 22.0°C (72°F) [RH = 62%]
Pressure (altimeter): 29.91 inches Hg (1013.0 mb)
Winds: from the NW (320 degrees) at 8 MPH (7 knots; 3.6 m/s)
Visibility: 6 or more miles (10+ km)
Ceiling: at least 12,000 feet AGL
Clouds: scattered clouds at 2000 feet AGL
Weather: no significant weather observed at this time

METAR text: RPLB 160700Z 23007KT 180V280 9999 SCT020 31/20 Q1013 NOSIG RMK A2991
Conditions at: RPLB (OLONGAPO/SUBIC , PH) observed 0700 UTC 16 February 2019
Temperature: 31.0°C (88°F)
Dewpoint: 20.0°C (68°F) [RH = 52%]
Pressure (altimeter): 29.91 inches Hg (1013.0 mb)
Winds: from the SW (230 degrees) at 8 MPH (7 knots; 3.6 m/s)
Visibility: 6 or more miles (10+ km)
Ceiling: at least 12,000 feet AGL
Clouds: scattered clouds at 2000 feet AGL
Weather: no significant weather observed at this time

METAR text: RPLB 160600Z 09009KT 060V130 9999 FEW020 32/18 Q1014 NOSIG RMK A2994
Conditions at: RPLB (OLONGAPO/SUBIC , PH) observed 0600 UTC 16 February 2019
Temperature: 32.0°C (90°F)
Dewpoint: 18.0°C (64°F) [RH = 43%]
Pressure (altimeter): 29.94 inches Hg (1014.0 mb)
Winds: from the E (90 degrees) at 10 MPH (9 knots; 4.6 m/s)
Visibility: 6 or more miles (10+ km)
Ceiling: at least 12,000 feet AGL
Clouds: few clouds at 2000 feet AGL
Weather: no significant weather observed at this time

METAR text: RPLB 160500Z 07011KT 040V100 9999 FEW020 32/19 Q1015 NOSIG RMK A2997
Conditions at: RPLB (OLONGAPO/SUBIC , PH) observed 0500 UTC 16 February 2019
Temperature: 32.0°C (90°F)
Dewpoint: 19.0°C (66°F) [RH = 46%]
Pressure (altimeter): 29.97 inches Hg (1015.0 mb)
Winds: from the ENE (70 degrees) at 13 MPH (11 knots; 5.7 m/s)
Visibility: 6 or more miles (10+ km)
Ceiling: at least 12,000 feet AGL
Clouds: few clouds at 2000 feet AGL
Weather: no significant weather observed at this time

METAR text: RPLB 160400Z 07013KT 9999 FEW020 31/19 Q1016 NOSIG RMK A3000
Conditions at: RPLB (OLONGAPO/SUBIC , PH) observed 0400 UTC 16 February 2019
Temperature: 31.0°C (88°F)
Dewpoint: 19.0°C (66°F) [RH = 49%]
Pressure (altimeter): 30.00 inches Hg (1016.0 mb)
Winds: from the ENE (70 degrees) at 15 MPH (13 knots; 6.7 m/s)
Visibility: 6 or more miles (10+ km)
Ceiling: at least 12,000 feet AGL
Clouds: few clouds at 2000 feet AGL
Weather: no significant weather observed at this time

METAR text: RPLB 160300Z 07014KT 040V100 9999 FEW020 30/19 Q1017 NOSIG RMK A3003
Conditions at: RPLB (OLONGAPO/SUBIC , PH) observed 0300 UTC 16 February 2019
Temperature: 30.0°C (86°F)
Dewpoint: 19.0°C (66°F) [RH = 52%]
Pressure (altimeter): 30.03 inches Hg (1017.0 mb)
Winds: from the ENE (70 degrees) at 16 MPH (14 knots; 7.2 m/s)
Visibility: 6 or more miles (10+ km)
Ceiling: at least 12,000 feet AGL
Clouds: few clouds at 2000 feet AGL
Weather: no significant weather observed at this time

METAR text: RPLB 160200Z 07014KT 9999 FEW020 29/19 Q1018 NOSIG RMK A3006
Conditions at: RPLB (OLONGAPO/SUBIC , PH) observed 0200 UTC 16 February 2019
Temperature: 29.0°C (84°F)
Dewpoint: 19.0°C (66°F) [RH = 55%]
Pressure (altimeter): 30.06 inches Hg (1018.0 mb)
Winds: from the ENE (70 degrees) at 16 MPH (14 knots; 7.2 m/s)
Visibility: 6 or more miles (10+ km)
Ceiling: at least 12,000 feet AGL
Clouds: few clouds at 2000 feet AGL
Weather: no significant weather observed at this time

METAR text: RPLB 160100Z 07011KT 9999 FEW020 27/18 Q1018 NOSIG RMK A3006
Conditions at: RPLB (OLONGAPO/SUBIC , PH) observed 0100 UTC 16 February 2019
Temperature: 27.0°C (81°F)
Dewpoint: 18.0°C (64°F) [RH = 58%]
Pressure (altimeter): 30.06 inches Hg (1018.0 mb)
Winds: from the ENE (70 degrees) at 13 MPH (11 knots; 5.7 m/s)
Visibility: 6 or more miles (10+ km)
Ceiling: at least 12,000 feet AGL
Clouds: few clouds at 2000 feet AGL
Weather: no significant weather observed at this time

METAR text: RPLB 160000Z 05007KT 010V070 9999 FEW020 25/19 Q1018 NOSIG RMK A3006
Conditions at: RPLB (OLONGAPO/SUBIC , PH) observed 0000 UTC 16 February 2019
Temperature: 25.0°C (77°F)
Dewpoint: 19.0°C (66°F) [RH = 69%]
Pressure (altimeter): 30.06 inches Hg (1018.0 mb)
Winds: from the NE (50 degrees) at 8 MPH (7 knots; 3.6 m/s)
Visibility: 6 or more miles (10+ km)
Ceiling: at least 12,000 feet AGL
Clouds: few clouds at 2000 feet AGL
Weather: no significant weather observed at this time

METAR text: RPLB 152300Z 03006KT 9999 FEW020 24/18 Q1017 NOSIG RMK A3003
Conditions at: RPLB (OLONGAPO/SUBIC , PH) observed 2300 UTC 15 February 2019
Temperature: 24.0°C (75°F)
Dewpoint: 18.0°C (64°F) [RH = 69%]
Pressure (altimeter): 30.03 inches Hg (1017.0 mb)
Winds: from the NNE (30 degrees) at 7 MPH (6 knots; 3.1 m/s)
Visibility: 6 or more miles (10+ km)
Ceiling: at least 12,000 feet AGL
Clouds: few clouds at 2000 feet AGL
Weather: no significant weather observed at this time

METAR text: RPLB 152200Z 03004KT 9999 FEW020 23/19 Q1017 NOSIG RMK A3003
Conditions at: RPLB (OLONGAPO/SUBIC , PH) observed 2200 UTC 15 February 2019
Temperature: 23.0°C (73°F)
Dewpoint: 19.0°C (66°F) [RH = 78%]
Pressure (altimeter): 30.03 inches Hg (1017.0 mb)
Winds: from the NNE (30 degrees) at 5 MPH (4 knots; 2.1 m/s)
Visibility: 6 or more miles (10+ km)
Ceiling: at least 12,000 feet AGL
Clouds: few clouds at 2000 feet AGL
Weather: no significant weather observed at this time

METAR text: RPLB 152100Z 04005KT 010V080 9999 FEW020 23/19 Q1016 NOSIG RMK A3000
Conditions at: RPLB (OLONGAPO/SUBIC , PH) observed 2100 UTC 15 February 2019
Temperature: 23.0°C (73°F)
Dewpoint: 19.0°C (66°F) [RH = 78%]
Pressure (altimeter): 30.00 inches Hg (1016.0 mb)
Winds: from the NE (40 degrees) at 6 MPH (5 knots; 2.6 m/s)
Visibility: 6 or more miles (10+ km)
Ceiling: at least 12,000 feet AGL
Clouds: few clouds at 2000 feet AGL
Weather: no significant weather observed at this time

METAR text: RPLB 152000Z 05004KT 010V070 9999 FEW020 23/18 Q1016 NOSIG RMK A3000
Conditions at: RPLB (OLONGAPO/SUBIC , PH) observed 2000 UTC 15 February 2019
Temperature: 23.0°C (73°F)
Dewpoint: 18.0°C (64°F) [RH = 73%]
Pressure (altimeter): 30.00 inches Hg (1016.0 mb)
Winds: from the NE (50 degrees) at 5 MPH (4 knots; 2.1 m/s)
Visibility: 6 or more miles (10+ km)
Ceiling: at least 12,000 feet AGL
Clouds: few clouds at 2000 feet AGL
Weather: no significant weather observed at this time

METAR text: RPLB 151900Z VRB03KT 9999 FEW020 22/18 Q1016 NOSIG RMK A3000
Conditions at: RPLB (OLONGAPO/SUBIC , PH) observed 1900 UTC 15 February 2019
Temperature: 22.0°C (72°F)
Dewpoint: 18.0°C (64°F) [RH = 78%]
Pressure (altimeter): 30.00 inches Hg (1016.0 mb)
Winds: variable direction winds at 3 MPH (3 knots; 1.5 m/s)
Visibility: 6 or more miles (10+ km)
Ceiling: at least 12,000 feet AGL
Clouds: few clouds at 2000 feet AGL
Weather: no significant weather observed at this time

METAR text: RPLB 151800Z 04006KT 360V070 9999 FEW020 24/18 Q1016 NOSIG RMK A3000
Conditions at: RPLB (OLONGAPO/SUBIC , PH) observed 1800 UTC 15 February 2019
Temperature: 24.0°C (75°F)
Dewpoint: 18.0°C (64°F) [RH = 69%]
Pressure (altimeter): 30.00 inches Hg (1016.0 mb)
Winds: from the NE (40 degrees) at 7 MPH (6 knots; 3.1 m/s)
Visibility: 6 or more miles (10+ km)
Ceiling: at least 12,000 feet AGL
Clouds: few clouds at 2000 feet AGL
Weather: no significant weather observed at this time

METAR text: RPLB 151700Z 06006KT 9999 FEW020 22/18 Q1017 NOSIG RMK A3003
Conditions at: RPLB (OLONGAPO/SUBIC , PH) observed 1700 UTC 15 February 2019
Temperature: 22.0°C (72°F)
Dewpoint: 18.0°C (64°F) [RH = 78%]
Pressure (altimeter): 30.03 inches Hg (1017.0 mb)
Winds: from the ENE (60 degrees) at 7 MPH (6 knots; 3.1 m/s)
Visibility: 6 or more miles (10+ km)
Ceiling: at least 12,000 feet AGL
Clouds: few clouds at 2000 feet AGL
Weather: no significant weather observed at this time

METAR text: RPLB 151600Z 06004KT 9999 FEW020 23/17 Q1018 NOSIG RMK A3006
Conditions at: RPLB (OLONGAPO/SUBIC , PH) observed 1600 UTC 15 February 2019
Temperature: 23.0°C (73°F)
Dewpoint: 17.0°C (63°F) [RH = 69%]
Pressure (altimeter): 30.06 inches Hg (1018.0 mb)
Winds: from the ENE (60 degrees) at 5 MPH (4 knots; 2.1 m/s)
Visibility: 6 or more miles (10+ km)
Ceiling: at least 12,000 feet AGL
Clouds: few clouds at 2000 feet AGL
Weather: no significant weather observed at this time

METAR text: RPLB 151500Z 06009KT 9999 FEW020 24/17 Q1018 NOSIG RMK A3006
Conditions at: RPLB (OLONGAPO/SUBIC , PH) observed 1500 UTC 15 February 2019
Temperature: 24.0°C (75°F)
Dewpoint: 17.0°C (63°F) [RH = 65%]
Pressure (altimeter): 30.06 inches Hg (1018.0 mb)
Winds: from the ENE (60 degrees) at 10 MPH (9 knots; 4.6 m/s)
Visibility: 6 or more miles (10+ km)
Ceiling: at least 12,000 feet AGL
Clouds: few clouds at 2000 feet AGL
Weather: no significant weather observed at this time

METAR text: RPLB 151400Z 07007KT 9999 FEW020 23/19 Q1018 NOSIG RMK A3006
Conditions at: RPLB (OLONGAPO/SUBIC , PH) observed 1400 UTC 15 February 2019
Temperature: 23.0°C (73°F)
Dewpoint: 19.0°C (66°F) [RH = 78%]
Pressure (altimeter): 30.06 inches Hg (1018.0 mb)
Winds: from the ENE (70 degrees) at 8 MPH (7 knots; 3.6 m/s)
Visibility: 6 or more miles (10+ km)
Ceiling: at least 12,000 feet AGL
Clouds: few clouds at 2000 feet AGL
Weather: no significant weather observed at this time

METAR text: RPLB 151300Z 06005KT 9999 FEW020 24/18 Q1018 NOSIG RMK A3006
Conditions at: RPLB (OLONGAPO/SUBIC , PH) observed 1300 UTC 15 February 2019
Temperature: 24.0°C (75°F)
Dewpoint: 18.0°C (64°F) [RH = 69%]
Pressure (altimeter): 30.06 inches Hg (1018.0 mb)
Winds: from the ENE (60 degrees) at 6 MPH (5 knots; 2.6 m/s)
Visibility: 6 or more miles (10+ km)
Ceiling: at least 12,000 feet AGL
Clouds: few clouds at 2000 feet AGL
Weather: no significant weather observed at this time

METAR text: RPLB 151200Z 35005KT 320V030 9999 FEW020 26/19 Q1017 NOSIG RMK A3003
Conditions at: RPLB (OLONGAPO/SUBIC , PH) observed 1200 UTC 15 February 2019
Temperature: 26.0°C (79°F)
Dewpoint: 19.0°C (66°F) [RH = 65%]
Pressure (altimeter): 30.03 inches Hg (1017.0 mb)
Winds: from the N (350 degrees) at 6 MPH (5 knots; 2.6 m/s)
Visibility: 6 or more miles (10+ km)
Ceiling: at least 12,000 feet AGL
Clouds: few clouds at 2000 feet AGL
Weather: no significant weather observed at this time

METAR text: RPLB 151100Z 35008KT 9999 FEW020 27/19 Q1016 NOSIG RMK A3000
Conditions at: RPLB (OLONGAPO/SUBIC , PH) observed 1100 UTC 15 February 2019
Temperature: 27.0°C (81°F)
Dewpoint: 19.0°C (66°F) [RH = 62%]
Pressure (altimeter): 30.00 inches Hg (1016.0 mb)
Winds: from the N (350 degrees) at 9 MPH (8 knots; 4.1 m/s)
Visibility: 6 or more miles (10+ km)
Ceiling: at least 12,000 feet AGL
Clouds: few clouds at 2000 feet AGL
Weather: no significant weather observed at this time

METAR text: RPLB 151000Z 34004KT 9999 FEW020 SCT080 28/21 Q1015 NOSIG RMK A2997
Conditions at: RPLB (OLONGAPO/SUBIC , PH) observed 1000 UTC 15 February 2019
Temperature: 28.0°C (82°F)
Dewpoint: 21.0°C (70°F) [RH = 66%]
Pressure (altimeter): 29.97 inches Hg (1015.0 mb)
Winds: from the NNW (340 degrees) at 5 MPH (4 knots; 2.1 m/s)
Visibility: 6 or more miles (10+ km)
Ceiling: at least 12,000 feet AGL
Clouds: few clouds at 2000 feet AGL
scattered clouds at 8000 feet AGL
Weather: no significant weather observed at this time

Forecast for: RPLB (OLONGAPO/SUBIC , PH)
Text: TAF RPLB 161700Z 1618/1718 04004KT 9999 FEW020 TX32/1706Z TN21/1622Z
Forecast period: 1800 UTC 16 February 2019 to 1800 UTC 17 February 2019
Forecast type: FROM: standard forecast or significant change
Winds: from the NE (40 degrees) at 5 MPH (4 knots; 2.1 m/s)
Visibility: 6 or more miles 10+ km)
Ceiling: at least 12,000 feet AGL
Clouds: few clouds at 2000 feet AGL
Weather: no significant weather forecast for this period
Text: TEMPO 1618/1624 06008KT FEW018 SCT300
Forecast period: 1800 UTC 16 February 2019 to 0000 UTC 17 February 2019
Forecast type: TEMPORARY: The following changes expected for less than half the time period
Winds: from the ENE (60 degrees) at 9 MPH (8 knots; 4.1 m/s)
Visibility: missing
Ceiling: at least 12,000 feet AGL
Clouds: few clouds at 1800 feet AGL
scattered clouds at 30000 feet AGL
Weather: no significant weather forecast for this period